createdAt,value
2022-10-18T00:00:58.796Z,11.45
2022-10-18T00:03:25.964Z,11.75
2022-10-18T00:05:53.143Z,11.84
2022-10-18T00:08:21.206Z,11.77
2022-10-18T00:10:48.969Z,11.71
2022-10-18T00:13:16.571Z,11.73
2022-10-18T00:15:58.925Z,11.46
2022-10-18T00:18:26.584Z,11.33
2022-10-18T00:21:02.151Z,11.24
2022-10-18T00:23:31.319Z,11.47
2022-10-18T00:26:10.068Z,11.32
2022-10-18T00:28:38.982Z,11.10
2022-10-18T00:31:16.313Z,11.01
2022-10-18T00:33:46.036Z,11.19
2022-10-18T00:36:14.239Z,11.43
2022-10-18T00:38:42.033Z,11.44
2022-10-18T00:41:22.581Z,11.68
2022-10-18T00:43:58.327Z,11.67
2022-10-18T00:46:29.346Z,11.73
2022-10-18T00:49:00.003Z,11.69
2022-10-18T00:51:51.044Z,11.94
2022-10-18T00:54:20.789Z,11.92
2022-10-18T00:56:47.795Z,11.59
2022-10-18T00:59:17.124Z,11.25
2022-10-18T01:01:45.172Z,10.96
2022-10-18T01:04:15.386Z,10.75
2022-10-18T01:07:15.962Z,10.73
2022-10-18T01:10:29.444Z,10.72
2022-10-18T01:13:43.676Z,10.86
2022-10-18T01:16:46.434Z,10.79
2022-10-18T01:20:09.925Z,10.60
2022-10-18T01:22:45.013Z,10.55
2022-10-18T01:25:36.837Z,10.71
2022-10-18T01:28:54.091Z,10.97
2022-10-18T01:32:04.877Z,11.27
2022-10-18T01:34:36.580Z,11.26
2022-10-18T01:37:08.458Z,11.38
2022-10-18T01:39:38.635Z,11.43
2022-10-18T01:42:12.095Z,11.48
2022-10-18T01:44:41.132Z,11.94
2022-10-18T01:47:11.301Z,12.08
2022-10-18T01:49:38.283Z,12.03
2022-10-18T01:52:05.763Z,11.98
2022-10-18T01:54:39.794Z,11.56
2022-10-18T01:57:29.526Z,11.56
2022-10-18T02:00:06.537Z,11.49
2022-10-18T02:03:04.513Z,11.70
2022-10-18T02:05:44.777Z,11.74
2022-10-18T02:08:31.146Z,11.70
2022-10-18T02:11:07.330Z,11.69
2022-10-18T02:13:43.508Z,11.65
2022-10-18T02:16:42.091Z,11.64
2022-10-18T02:21:58.765Z,11.78
2022-10-18T02:24:44.338Z,11.88
2022-10-18T02:27:11.396Z,11.84
2022-10-18T02:29:39.830Z,11.52
2022-10-18T02:32:59.363Z,11.40
2022-10-18T02:35:52.709Z,11.30
2022-10-18T02:38:21.657Z,11.35
2022-10-18T02:40:48.562Z,11.53
2022-10-18T02:43:15.512Z,11.53
2022-10-18T02:45:42.568Z,11.49
2022-10-18T02:48:10.353Z,11.29
2022-10-18T02:50:37.250Z,11.22
2022-10-18T02:53:04.389Z,11.28
2022-10-18T02:55:31.334Z,11.28
2022-10-18T02:57:58.246Z,11.34
2022-10-18T03:00:25.208Z,11.65
2022-10-18T03:02:53.748Z,11.77
2022-10-18T03:05:20.721Z,11.76
2022-10-18T03:07:47.679Z,12.13
2022-10-18T03:10:14.666Z,11.83
2022-10-18T03:12:41.610Z,11.53
2022-10-18T03:15:08.992Z,11.43
2022-10-18T03:17:35.957Z,11.41
2022-10-18T03:20:03.020Z,11.51
2022-10-18T03:22:29.993Z,11.44
2022-10-18T03:24:56.940Z,11.51
2022-10-18T03:27:23.932Z,11.56
2022-10-18T03:29:50.887Z,11.68
2022-10-18T03:32:17.851Z,11.96
2022-10-18T03:34:44.768Z,11.94
2022-10-18T03:37:11.696Z,11.91
2022-10-18T03:39:38.590Z,12.03
2022-10-18T03:42:05.481Z,12.18
2022-10-18T03:44:32.352Z,12.35
2022-10-18T03:46:59.336Z,12.30
2022-10-18T03:49:26.329Z,12.16
2022-10-18T03:51:53.302Z,12.35
2022-10-18T03:54:20.236Z,12.40
2022-10-18T03:56:47.150Z,12.40
2022-10-18T03:59:14.158Z,12.19
2022-10-18T04:01:41.106Z,12.25
2022-10-18T04:04:08.142Z,12.36
2022-10-18T04:06:35.312Z,12.42
2022-10-18T04:09:04.217Z,12.43
2022-10-18T04:11:33.574Z,12.38
2022-10-18T04:14:00.517Z,12.69
2022-10-18T04:16:27.498Z,12.56
2022-10-18T04:18:54.517Z,12.75
2022-10-18T04:21:21.439Z,12.68
2022-10-18T04:23:49.267Z,12.84
2022-10-18T04:26:16.653Z,12.72
2022-10-18T04:28:44.160Z,12.77
2022-10-18T04:31:12.185Z,12.74
2022-10-18T04:33:39.538Z,12.71
2022-10-18T04:36:07.063Z,12.35
2022-10-18T04:38:34.035Z,12.40
2022-10-18T04:41:01.033Z,12.15
2022-10-18T04:43:27.942Z,12.18
2022-10-18T04:45:54.858Z,12.40
2022-10-18T04:48:21.767Z,12.39
2022-10-18T04:50:50.379Z,12.65
2022-10-18T04:53:18.460Z,13.06
2022-10-18T04:55:48.005Z,12.70
2022-10-18T04:58:16.505Z,12.32
2022-10-18T05:00:43.950Z,12.12
2022-10-18T05:03:13.509Z,12.13
2022-10-18T05:06:00.264Z,12.36
2022-10-18T05:08:27.963Z,12.40
2022-10-18T05:10:54.919Z,12.45
2022-10-18T05:13:21.894Z,12.97
2022-10-18T05:15:48.897Z,12.74
2022-10-18T05:18:15.869Z,12.64
2022-10-18T05:20:42.797Z,12.95
2022-10-18T05:23:12.923Z,12.86
2022-10-18T05:25:41.762Z,12.91
2022-10-18T05:28:34.706Z,12.82
2022-10-18T05:30:56.265Z,12.74
2022-10-18T05:33:23.173Z,12.80
2022-10-18T05:35:50.140Z,12.76
2022-10-18T05:38:17.060Z,12.80
2022-10-18T05:40:43.998Z,12.61
2022-10-18T05:43:10.938Z,12.88
2022-10-18T05:45:37.952Z,12.59
2022-10-18T05:48:07.495Z,12.78
2022-10-18T05:50:36.751Z,12.43
2022-10-18T05:53:12.498Z,12.39
2022-10-18T05:55:45.465Z,12.04
2022-10-18T05:58:12.374Z,11.95
2022-10-18T06:00:39.321Z,11.89
2022-10-18T06:03:06.329Z,11.83
2022-10-18T06:05:33.373Z,11.93
2022-10-18T06:08:00.377Z,11.92
2022-10-18T06:10:27.342Z,11.93
2022-10-18T06:12:54.319Z,12.07
2022-10-18T06:15:21.273Z,12.31
2022-10-18T06:17:48.171Z,12.33
2022-10-18T06:20:15.211Z,12.32
2022-10-18T06:22:42.147Z,12.48
2022-10-18T06:25:09.664Z,12.43
2022-10-18T06:27:36.619Z,12.41
2022-10-18T06:30:03.981Z,12.69
2022-10-18T06:32:30.895Z,12.75
2022-10-18T06:34:57.867Z,13.10
2022-10-18T06:37:24.845Z,13.10
2022-10-18T06:39:51.830Z,13.32
2022-10-18T06:42:21.822Z,13.26
2022-10-18T06:44:50.011Z,13.56
2022-10-18T06:47:17.003Z,13.70
2022-10-18T06:49:43.959Z,13.91
2022-10-18T06:52:10.929Z,13.87
2022-10-18T06:54:37.848Z,13.37
2022-10-18T06:57:04.781Z,13.26
2022-10-18T06:59:31.789Z,13.48
2022-10-18T07:01:58.782Z,13.53
2022-10-18T07:04:30.356Z,13.92
2022-10-18T07:06:57.370Z,14.17
2022-10-18T07:09:24.319Z,14.61
2022-10-18T07:11:52.829Z,15.06
2022-10-18T07:14:19.771Z,15.29
2022-10-18T07:16:46.881Z,15.41
2022-10-18T07:19:14.930Z,15.56
2022-10-18T07:21:42.102Z,15.61
2022-10-18T07:24:09.092Z,15.78
2022-10-18T07:26:36.219Z,15.88
2022-10-18T07:29:10.696Z,16.03
2022-10-18T07:31:41.267Z,16.23
2022-10-18T07:34:11.322Z,16.37
2022-10-18T07:36:38.678Z,16.50
2022-10-18T07:39:06.111Z,16.63
2022-10-18T07:41:34.432Z,16.75
2022-10-18T07:44:02.800Z,16.77
2022-10-18T07:46:30.014Z,16.83
2022-10-18T07:48:59.462Z,16.87
2022-10-18T07:51:28.162Z,16.88
2022-10-18T07:53:55.170Z,17.01
2022-10-18T07:56:22.543Z,16.94
2022-10-18T07:58:52.817Z,17.00
2022-10-18T08:01:22.327Z,16.99
2022-10-18T08:03:49.837Z,17.07
2022-10-18T08:06:18.816Z,17.13
2022-10-18T08:08:46.390Z,17.33
2022-10-18T08:11:18.479Z,17.43
2022-10-18T08:13:45.935Z,17.52
2022-10-18T08:16:16.257Z,17.68
2022-10-18T08:18:43.243Z,17.96
2022-10-18T08:21:12.811Z,18.45
2022-10-18T08:23:40.210Z,18.88
2022-10-18T08:26:15.189Z,19.12
2022-10-18T08:28:49.111Z,19.16
2022-10-18T08:31:21.203Z,19.76
2022-10-18T08:33:48.423Z,20.22
2022-10-18T08:36:17.337Z,20.13
2022-10-18T08:38:44.662Z,20.40
2022-10-18T08:41:36.889Z,21.18
2022-10-18T08:44:16.012Z,21.97
2022-10-18T08:46:55.849Z,22.46
2022-10-18T08:49:28.860Z,23.04
2022-10-18T08:51:57.596Z,23.31
2022-10-18T08:54:37.949Z,23.21
2022-10-18T08:57:13.063Z,23.10
2022-10-18T08:59:41.698Z,22.86
2022-10-18T09:02:48.516Z,22.04
2022-10-18T09:05:45.853Z,21.57
2022-10-18T09:08:27.790Z,21.14
2022-10-18T09:11:19.707Z,21.16
2022-10-18T09:14:10.501Z,21.77
2022-10-18T09:17:01.182Z,22.60
2022-10-18T09:19:54.925Z,23.63
2022-10-18T09:23:02.697Z,24.00
2022-10-18T09:26:00.901Z,23.23
2022-10-18T09:28:55.422Z,22.84
2022-10-18T09:32:19.436Z,22.94
2022-10-18T09:35:15.721Z,23.16
2022-10-18T09:37:44.099Z,23.09
2022-10-18T09:40:24.468Z,23.10
2022-10-18T09:42:55.921Z,24.48
2022-10-18T09:45:39.598Z,25.77
2022-10-18T09:48:06.561Z,26.89
2022-10-18T09:51:08.974Z,28.16
2022-10-18T09:53:53.168Z,27.82
2022-10-18T09:56:52.684Z,28.50
2022-10-18T09:59:32.868Z,28.29
2022-10-18T10:01:59.981Z,29.02
2022-10-18T10:04:27.236Z,29.89
2022-10-18T10:06:56.992Z,29.92
2022-10-18T10:09:40.971Z,28.59
2022-10-18T10:12:37.845Z,26.54
2022-10-18T10:15:28.176Z,26.09
2022-10-18T10:18:23.151Z,26.06
2022-10-18T10:20:55.702Z,26.89
2022-10-18T10:23:30.025Z,27.06
2022-10-18T10:26:00.255Z,27.39
2022-10-18T10:28:36.315Z,28.18
2022-10-18T10:31:25.418Z,28.01
2022-10-18T10:34:12.707Z,27.99
2022-10-18T10:36:52.643Z,27.50
2022-10-18T10:39:23.126Z,27.11
2022-10-18T10:41:53.529Z,27.22
2022-10-18T10:44:24.957Z,27.13
2022-10-18T10:46:53.385Z,27.68
2022-10-18T10:49:46.523Z,28.48
2022-10-18T10:52:28.028Z,29.00
2022-10-18T10:55:05.931Z,28.91
2022-10-18T10:57:47.288Z,29.99
2022-10-18T11:00:38.942Z,30.25
2022-10-18T11:03:27.146Z,29.94
2022-10-18T11:05:57.714Z,29.40
2022-10-18T11:08:33.431Z,29.18
2022-10-18T11:11:28.601Z,28.11
2022-10-18T11:14:25.145Z,27.51
2022-10-18T11:17:15.595Z,26.35
2022-10-18T11:20:09.629Z,25.78
2022-10-18T11:23:06.243Z,25.46
2022-10-18T11:26:08.782Z,25.27
2022-10-18T11:28:57.713Z,25.40
2022-10-18T11:31:31.311Z,26.44
2022-10-18T11:34:27.285Z,27.86
2022-10-18T11:37:27.135Z,28.77
2022-10-18T11:40:22.193Z,29.34
2022-10-18T11:43:10.758Z,30.43
2022-10-18T11:45:59.968Z,30.71
2022-10-18T11:49:04.290Z,29.43
2022-10-18T11:52:07.335Z,27.80
2022-10-18T11:54:53.479Z,26.09
2022-10-18T11:57:30.227Z,25.82
2022-10-18T12:00:17.763Z,25.40
2022-10-18T12:02:57.237Z,25.03
2022-10-18T12:05:25.317Z,24.60
2022-10-18T12:08:05.148Z,24.02
2022-10-18T12:10:45.658Z,23.59
2022-10-18T12:13:50.489Z,23.38
2022-10-18T12:16:38.887Z,23.48
2022-10-18T12:19:23.319Z,23.84
2022-10-18T12:22:12.723Z,24.78
2022-10-18T12:24:40.376Z,24.60
2022-10-18T12:27:12.026Z,24.59
2022-10-18T12:29:57.526Z,24.81
2022-10-18T12:32:32.097Z,24.91
2022-10-18T12:35:07.315Z,25.81
2022-10-18T12:37:59.990Z,25.32
2022-10-18T12:40:46.866Z,24.53
2022-10-18T12:43:40.183Z,23.83
2022-10-18T12:46:13.560Z,23.65
2022-10-18T12:48:50.749Z,23.99
2022-10-18T12:51:20.193Z,25.47
2022-10-18T12:54:08.019Z,25.97
2022-10-18T12:56:42.055Z,26.73
2022-10-18T12:59:15.317Z,26.74
2022-10-18T13:01:51.355Z,27.41
2022-10-18T13:04:27.539Z,28.09
2022-10-18T13:07:22.441Z,28.46
2022-10-18T13:10:15.480Z,29.19
2022-10-18T13:12:54.541Z,29.49
2022-10-18T13:16:11.962Z,29.39
2022-10-18T13:19:13.207Z,29.72
2022-10-18T13:22:20.597Z,29.79
2022-10-18T13:25:10.520Z,29.44
2022-10-18T13:28:06.798Z,28.48
2022-10-18T13:30:59.661Z,29.04
2022-10-18T13:33:35.104Z,29.70
2022-10-18T13:36:29.350Z,29.14
2022-10-18T13:38:57.638Z,28.42
2022-10-18T13:41:32.815Z,28.01
2022-10-18T13:44:37.837Z,26.88
2022-10-18T13:47:04.824Z,25.99
2022-10-18T13:49:54.830Z,25.58
2022-10-18T13:53:18.818Z,25.02
2022-10-18T13:56:24.829Z,24.50
2022-10-18T13:59:59.357Z,24.13
2022-10-18T14:02:53.391Z,23.77
2022-10-18T14:05:50.580Z,23.62
2022-10-18T14:08:40.312Z,23.48
2022-10-18T14:11:29.262Z,23.38
2022-10-18T14:14:31.673Z,23.19
2022-10-18T14:17:36.535Z,23.19
2022-10-18T14:20:19.938Z,23.11
2022-10-18T14:23:29.605Z,22.74
2022-10-18T14:26:14.867Z,22.60
2022-10-18T14:28:58.997Z,22.47
2022-10-18T14:31:28.162Z,22.14
2022-10-18T14:33:58.847Z,21.95
2022-10-18T14:36:41.235Z,21.73
2022-10-18T14:39:21.118Z,21.64
2022-10-18T14:41:50.609Z,21.57
2022-10-18T14:44:40.877Z,21.30
2022-10-18T14:47:21.493Z,21.25
2022-10-18T14:49:49.729Z,21.14
2022-10-18T14:52:26.217Z,20.94
2022-10-18T14:54:57.138Z,20.79
2022-10-18T14:57:31.128Z,20.75
2022-10-18T15:00:01.936Z,20.65
2022-10-18T15:02:32.642Z,20.64
2022-10-18T15:05:05.354Z,20.63
2022-10-18T15:07:33.063Z,20.55
2022-10-18T15:10:04.050Z,20.47
2022-10-18T15:12:36.907Z,20.29
2022-10-18T15:15:21.209Z,20.24
2022-10-18T15:17:49.489Z,20.23
2022-10-18T15:20:25.086Z,20.17
2022-10-18T15:22:53.077Z,20.13
2022-10-18T15:25:32.113Z,20.17
2022-10-18T15:28:00.509Z,20.15
2022-10-18T15:30:39.019Z,20.14
2022-10-18T15:33:10.684Z,20.05
2022-10-18T15:35:39.253Z,20.06
2022-10-18T15:38:27.858Z,19.97
2022-10-18T15:40:55.548Z,19.87
2022-10-18T15:43:28.560Z,19.73
2022-10-18T15:46:05.094Z,19.58
2022-10-18T15:48:40.316Z,19.46
2022-10-18T15:51:47.840Z,19.26
2022-10-18T15:54:19.388Z,19.12
2022-10-18T15:56:46.330Z,19.05
2022-10-18T15:59:28.986Z,18.94
2022-10-18T16:01:56.007Z,18.87
2022-10-18T16:04:30.342Z,18.78
2022-10-18T16:06:59.081Z,18.71
2022-10-18T16:09:29.304Z,18.66
2022-10-18T16:11:58.176Z,18.60
2022-10-18T16:14:26.466Z,18.59
2022-10-18T16:17:00.441Z,18.62
2022-10-18T16:19:27.591Z,18.61
2022-10-18T16:21:54.920Z,18.55
2022-10-18T16:24:22.935Z,18.53
2022-10-18T16:26:50.306Z,18.47
2022-10-18T16:29:25.520Z,18.47
2022-10-18T16:31:55.259Z,18.47
2022-10-18T16:34:22.189Z,18.46
2022-10-18T16:36:49.130Z,18.49
2022-10-18T16:39:21.646Z,18.44
2022-10-18T16:41:48.991Z,18.45
2022-10-18T16:44:16.703Z,18.46
2022-10-18T16:46:43.828Z,18.42
2022-10-18T16:49:25.804Z,18.40
2022-10-18T16:51:53.995Z,18.33
2022-10-18T16:54:21.416Z,18.29
2022-10-18T16:56:49.964Z,18.29
2022-10-18T16:59:31.590Z,18.36
2022-10-18T17:01:58.614Z,18.31
2022-10-18T17:04:25.546Z,18.24
2022-10-18T17:06:54.430Z,18.22
2022-10-18T17:09:21.319Z,18.12
2022-10-18T17:11:48.244Z,18.09
2022-10-18T17:14:15.118Z,18.15
2022-10-18T17:16:45.379Z,18.15
2022-10-18T17:19:15.453Z,18.15
2022-10-18T17:21:42.418Z,18.05
2022-10-18T17:24:09.455Z,18.06
2022-10-18T17:26:36.421Z,18.07
2022-10-18T17:29:08.290Z,18.02
2022-10-18T17:31:35.777Z,18.01
2022-10-18T17:34:03.243Z,17.98
2022-10-18T17:36:32.405Z,17.92
2022-10-18T17:38:59.405Z,17.86
2022-10-18T17:41:27.177Z,17.81
2022-10-18T17:43:54.177Z,17.79
2022-10-18T17:46:21.172Z,17.78
2022-10-18T17:48:48.094Z,17.67
2022-10-18T17:51:17.476Z,17.63
2022-10-18T17:53:46.245Z,17.65
2022-10-18T17:56:14.130Z,17.69
2022-10-18T17:58:45.313Z,17.69
2022-10-18T18:01:21.937Z,17.72
2022-10-18T18:03:49.688Z,17.70
2022-10-18T18:06:31.293Z,17.70
2022-10-18T18:09:01.300Z,17.77
2022-10-18T18:11:29.366Z,17.72
2022-10-18T18:13:57.038Z,17.66
2022-10-18T18:16:28.282Z,17.65
2022-10-18T18:18:57.781Z,17.67
2022-10-18T18:21:26.270Z,17.67
2022-10-18T18:23:53.513Z,17.61
2022-10-18T18:26:20.897Z,17.56
2022-10-18T18:28:48.639Z,17.50
2022-10-18T18:31:20.349Z,17.48
2022-10-18T18:33:47.268Z,17.44
2022-10-18T18:36:14.235Z,17.43
2022-10-18T18:38:44.725Z,17.41
2022-10-18T18:41:21.129Z,17.44
2022-10-18T18:43:52.394Z,17.20
2022-10-18T18:46:23.806Z,17.26
2022-10-18T18:48:51.064Z,17.19
2022-10-18T18:51:22.034Z,17.17
2022-10-18T18:53:49.248Z,17.11
2022-10-18T18:58:49.171Z,17.24
2022-10-18T19:01:25.463Z,17.17
2022-10-18T19:03:54.967Z,17.11
2022-10-18T19:06:31.572Z,17.06
2022-10-18T19:09:02.971Z,16.99
2022-10-18T19:11:35.111Z,16.91
2022-10-18T19:14:02.992Z,16.79
2022-10-18T19:16:34.813Z,16.64
2022-10-18T19:19:06.143Z,16.46
2022-10-18T19:21:39.883Z,16.36
2022-10-18T19:24:08.037Z,16.25
2022-10-18T19:26:47.690Z,16.44
2022-10-18T19:29:19.109Z,16.47
2022-10-18T19:31:46.525Z,16.50
2022-10-18T19:34:15.337Z,16.37
2022-10-18T19:36:45.485Z,16.15
2022-10-18T19:39:20.463Z,15.95
2022-10-18T19:41:49.712Z,15.76
2022-10-18T19:44:21.190Z,15.72
2022-10-18T19:46:49.084Z,15.73
2022-10-18T19:49:16.629Z,15.65
2022-10-18T19:51:44.605Z,15.53
2022-10-18T19:54:13.021Z,15.51
2022-10-18T19:56:43.697Z,15.49
2022-10-18T19:59:12.401Z,15.50
2022-10-18T20:01:39.659Z,15.53
2022-10-18T20:04:09.458Z,15.48
2022-10-18T20:06:38.527Z,15.49
2022-10-18T20:09:13.332Z,15.68
2022-10-18T20:11:43.260Z,15.72
2022-10-18T20:14:10.825Z,15.75
2022-10-18T20:16:37.921Z,15.72
2022-10-18T20:19:07.487Z,15.71
2022-10-18T20:21:36.386Z,15.50
2022-10-18T20:24:05.659Z,15.22
2022-10-18T20:26:34.501Z,14.95
2022-10-18T20:29:01.593Z,14.92
2022-10-18T20:31:37.063Z,14.96
2022-10-18T20:34:08.793Z,14.90
2022-10-18T20:36:36.342Z,14.91
2022-10-18T20:39:04.537Z,14.98
2022-10-18T20:41:35.748Z,14.87
2022-10-18T20:44:10.802Z,14.63
2022-10-18T20:46:38.787Z,14.68
2022-10-18T20:49:08.431Z,14.55
2022-10-18T20:51:36.100Z,14.54
2022-10-18T20:56:39.206Z,14.21
2022-10-18T20:59:09.611Z,14.11
2022-10-18T21:01:38.584Z,14.07
2022-10-18T21:04:08.537Z,14.20
2022-10-18T21:06:42.579Z,14.41
2022-10-18T21:09:16.878Z,14.55
2022-10-18T21:11:49.293Z,14.41
2022-10-18T21:14:19.143Z,14.36
2022-10-18T21:16:46.648Z,14.39
2022-10-18T21:19:21.105Z,14.11
2022-10-18T21:21:51.675Z,13.99
2022-10-18T21:24:19.894Z,13.87
2022-10-18T21:26:47.914Z,13.66
2022-10-18T21:29:20.726Z,13.95
2022-10-18T21:31:48.758Z,14.06
2022-10-18T21:34:19.747Z,14.00
2022-10-18T21:36:48.368Z,13.82
2022-10-18T21:39:19.718Z,13.86
2022-10-18T21:41:47.075Z,13.82
2022-10-18T21:44:15.045Z,13.77
2022-10-18T21:46:46.651Z,13.72
2022-10-18T21:49:14.704Z,13.64
2022-10-18T21:51:41.807Z,13.68
2022-10-18T21:54:13.026Z,13.65
2022-10-18T21:56:40.256Z,13.46
2022-10-18T21:59:07.531Z,13.65
2022-10-18T22:01:39.151Z,13.75
2022-10-18T22:04:18.129Z,13.56
2022-10-18T22:06:45.116Z,13.10
2022-10-18T22:09:12.435Z,12.79
2022-10-18T22:11:47.013Z,12.56
2022-10-18T22:14:14.114Z,12.52
2022-10-18T22:16:41.060Z,12.51
2022-10-18T22:19:08.066Z,12.55
2022-10-18T22:21:35.753Z,12.66
2022-10-18T22:24:07.429Z,13.00
2022-10-18T22:26:38.564Z,13.10
2022-10-18T22:29:08.569Z,13.01
2022-10-18T22:31:39.558Z,12.90
2022-10-18T22:34:10.979Z,13.02
2022-10-18T22:36:38.644Z,13.04
2022-10-18T22:39:06.710Z,12.81
2022-10-18T22:41:34.593Z,12.53
2022-10-18T22:44:03.593Z,12.60
2022-10-18T22:46:32.138Z,12.38
2022-10-18T22:48:59.101Z,12.26
2022-10-18T22:51:26.169Z,12.16
2022-10-18T22:53:53.373Z,12.16
2022-10-18T22:56:23.525Z,12.51
2022-10-18T22:58:50.895Z,12.40
2022-10-18T23:01:21.237Z,12.36
2022-10-18T23:03:54.405Z,12.33
2022-10-18T23:06:25.585Z,12.18
2022-10-18T23:08:55.608Z,12.11
2022-10-18T23:11:23.747Z,12.12
2022-10-18T23:13:51.389Z,12.09
2022-10-18T23:16:18.745Z,12.10
2022-10-18T23:18:56.106Z,12.44
2022-10-18T23:21:25.382Z,12.51
2022-10-18T23:23:53.807Z,12.54
2022-10-18T23:26:26.621Z,12.29
2022-10-18T23:28:54.869Z,12.02
2022-10-18T23:31:28.005Z,11.93
2022-10-18T23:33:59.388Z,12.09
2022-10-18T23:36:27.147Z,11.85
2022-10-18T23:38:54.977Z,11.98
2022-10-18T23:41:21.997Z,11.73
2022-10-18T23:43:48.978Z,11.53
2022-10-18T23:46:17.596Z,11.70
2022-10-18T23:48:45.447Z,11.78
2022-10-18T23:51:12.637Z,11.88
2022-10-18T23:53:39.655Z,11.61
2022-10-18T23:56:13.851Z,11.56
2022-10-18T23:58:43.979Z,11.31
